EST,Max TemperatureF,Mean TemperatureF,Min TemperatureF,Max Dew PointF,MeanDew PointF,Min DewpointF,Max Humidity, Mean Humidity, Min Humidity, Max Sea Level PressureIn, Mean Sea Level PressureIn, Min Sea Level PressureIn, Max VisibilityMiles, Mean VisibilityMiles, Min VisibilityMiles, Max Wind SpeedMPH, Mean Wind SpeedMPH, Max Gust SpeedMPH,PrecipitationIn, CloudCover, Events, WindDirDegrees
2012-12-1,42,40,38,42,36,31,89,80,70,30.51,30.45,30.41,10,7,2,16,11,21,T,8,,39
2012-12-2,52,46,40,48,43,39,100,92,83,30.39,30.28,30.11,10,3,0,17,6,23,0.04,8,Fog-Rain,294
2012-12-3,61,50,38,49,44,36,100,78,55,30.27,30.17,30.09,10,6,1,15,5,20,0.00,5,Fog,278
2012-12-4,58,48,38,55,49,38,100,91,82,30.28,30.20,29.99,10,4,0,15,7,21,0.08,7,Fog-Rain,175
2012-12-5,56,46,36,50,35,19,93,66,39,30.18,30.01,29.90,10,10,10,26,14,37,T,5,,295
2012-12-6,38,31,24,20,17,15,68,56,44,30.34,30.28,30.19,10,10,10,20,7,24,0.00,2,,353
2012-12-7,49,37,24,45,34,18,93,82,70,30.27,30.15,30.02,10,8,2,15,2,22,0.07,7,Rain,205
2012-12-8,52,49,46,49,46,44,100,93,86,30.00,29.92,29.86,6,2,0,10,4,13,0.45,8,Fog-Rain,320
2012-12-9,50,47,43,48,43,35,100,83,65,30.23,30.12,30.00,10,4,0,18,8,24,0.26,8,Fog-Rain,33
2012-12-10,58,54,50,56,53,50,100,97,93,29.96,29.74,29.55,4,1,0,21,9,28,0.62,8,Fog-Rain,213
2012-12-11,54,47,39,54,38,27,100,75,50,30.18,29.85,29.56,10,8,0,22,8,28,0.14,7,Fog-Rain,331
2012-12-12,44,38,31,29,25,22,78,61,43,30.41,30.34,30.19,10,10,10,13,3,18,0.00,6,,334
2012-12-13,46,37,28,30,25,21,85,63,40,30.45,30.39,30.31,10,10,8,13,3,16,0.00,4,,7
2012-12-14,50,39,27,30,25,22,82,61,39,30.30,30.21,30.13,10,10,8,17,5,21,0.00,2,,258
2012-12-15,48,37,26,33,27,23,92,69,45,30.31,30.25,30.22,10,9,5,12,3,14,0.00,5,,53
2012-12-16,45,43,40,42,39,33,92,81,70,30.21,30.07,29.89,10,6,1,23,13,30,0.11,8,Rain,80
2012-12-17,49,46,42,57,43,40,96,91,86,29.88,29.82,29.63,10,4,1,20,11,25,0.53,8,Rain,47
2012-12-18,56,50,44,52,46,34,96,81,65,29.58,29.49,29.44,10,6,0,25,11,32,1.41,7,Rain,285
2012-12-19,49,44,38,32,27,25,65,52,39,30.08,29.79,29.57,10,10,10,25,14,35,0.00,1,,312
2012-12-20,47,39,31,40,30,24,76,63,49,30.19,30.09,29.87,10,10,10,21,8,29,0.02,5,Rain,70
2012-12-21,58,48,37,53,40,26,93,74,55,29.79,29.34,29.13,10,8,1,40,21,60,0.64,7,Rain,187
2012-12-22,40,37,34,31,23,17,82,61,40,29.78,29.52,29.31,10,10,4,33,18,44,T,6,Snow,282
2012-12-23,44,37,30,25,21,17,61,52,43,29.94,29.88,29.79,10,10,10,22,9,29,0.00,4,,259
2012-12-24,40,33,25,32,23,17,89,69,48,30.08,30.00,29.93,10,8,2,8,4,13,0.08,6,Rain-Snow,8
2012-12-25,40,36,31,38,32,23,92,78,64,30.22,30.01,29.87,10,7,3,18,10,24,0.13,6,Rain,360
2012-12-26,44,36,27,40,28,21,89,76,63,30.27,30.03,29.48,10,7,3,31,14,44,0.58,7,Rain-Snow,51
2012-12-27,47,39,30,45,34,20,93,78,63,29.77,29.40,29.21,10,6,2,38,20,49,0.53,8,Rain,339
2012-12-28,40,33,26,23,21,19,75,62,48,30.06,29.97,29.78,10,10,10,21,10,28,0.00,3,,308
2012-12-29,38,32,25,35,29,21,92,84,75,30.02,29.68,29.42,10,6,2,18,8,25,0.42,8,Rain-Snow,11
2012-12-30,34,31,27,27,18,13,85,64,43,30.13,29.83,29.52,10,10,10,33,19,44,T,2,,303
2012-12-31,40,32,24,24,19,14,68,58,48,30.15,30.05,29.86,10,10,10,23,11,29,0.00,6,,252